This is the latest recevied weather packets stored in our database for station/object K1RTA-1. If no packets are shown the sender has not sent any weather packets the latest 10 day(s).
| Time | Temp. | Humidity | Pressure | Rain* | Wind** | Luminosity | Snow |
|---|---|---|---|---|---|---|---|
| 1777750589 | 12.78° C | 61% | 1013.1 hPa | 0 mm | - | - | - |
| 1777749690 | 12.78° C | 61% | 1013.2 hPa | 0 mm | - | - | - |
| 1777748788 | 13.33° C | 55% | 1013.3 hPa | 0 mm | - | - | - |
| 1777747889 | 13.33° C | 62% | 1013.6 hPa | 0 mm | - | - | - |
| 1777746990 | 13.89° C | 67% | 1013.6 hPa | 0 mm | - | - | - |
| 1777746089 | 13.89° C | 66% | 1013.5 hPa | 0 mm | - | - | - |
| 1777745189 | 14.44° C | 58% | 1013.9 hPa | 0 mm | - | - | - |
| 1777744288 | 14.44° C | 54% | 1013.7 hPa | 0 mm | - | - | - |
| 1777743390 | 14.44° C | 54% | 1013.4 hPa | 0 mm | - | - | - |
| 1777742489 | 14.44° C | 58% | 1013.3 hPa | 0 mm | - | - | - |
| 1777741589 | 14.44° C | 61% | 1013.4 hPa | 0 mm | - | - | - |
| 1777740689 | 15° C | 60% | 1013.5 hPa | 0 mm | - | - | - |
| 1777739789 | 15° C | 62% | 1013.5 hPa | 0 mm | - | - | - |
| 1777738890 | 15° C | 58% | 1013.9 hPa | 0 mm | - | - | - |
| 1777737990 | 15.56° C | 58% | 1013.8 hPa | 0 mm | - | - | - |
| 1777737089 | 16.11° C | 58% | 1013.9 hPa | 0 mm | - | - | - |
| 1777736190 | 15° C | 57% | 1013.7 hPa | 0 mm | - | - | - |
| 1777735289 | 15° C | 61% | 1013.5 hPa | 0 mm | - | - | - |
| 1777734389 | 16.11° C | 61% | 1014.1 hPa | 0 mm | - | - | - |
| 1777733490 | 16.11° C | 62% | 1014.3 hPa | 0 mm | - | - | - |
| 1777732589 | 16.11° C | 61% | 1014.5 hPa | 0 mm | - | - | - |
| 1777731690 | 16.11° C | 63% | 1014.7 hPa | 0 mm | - | - | - |
| 1777730790 | 15° C | 67% | 1014.6 hPa | 0 mm | - | - | - |
| 1777729889 | 13.89° C | 67% | 1014.5 hPa | 0 mm | - | - | - |
| 1777728989 | 13.89° C | 69% | 1014.5 hPa | 0 mm | - | - | - |
* Rain latest hour (hover to see other rain measurements)
** Current wind speed in m/s (hover to see current wind gust speed)